Time,TemperatureF,DewpointF,PressureIn,WindDirection,WindDirectionDegrees,WindSpeedMPH,WindSpeedGustMPH,Humidity,HourlyPrecipIn,Conditions,Clouds,dailyrainin,SolarRadiationWatts/m^2,SoftwareType,DateUTC
2013-05-04 00:01:00,49.0,45.0,-100.00,North,8,1.0,3.0,85,-99.99,,,0.00,0.000000,,2013-05-04 07:01:00,
2013-05-04 00:11:00,49.0,45.0,-100.00,North,8,1.0,3.0,85,-99.99,,,0.00,0.000000,,2013-05-04 07:11:00,
2013-05-04 00:41:00,49.0,45.0,-100.00,NNW,344,4.0,7.0,87,-99.99,,,0.00,0.000000,,2013-05-04 07:41:00,
2013-05-04 00:52:00,49.0,45.0,-100.00,NNW,344,4.0,7.0,87,-99.99,,,0.00,0.000000,,2013-05-04 07:52:00,
2013-05-04 01:01:00,49.0,45.0,-100.00,NNW,344,4.0,7.0,87,-99.99,,,0.00,0.000000,,2013-05-04 08:01:00,
2013-05-04 01:11:00,49.0,45.0,-100.00,NNW,344,4.0,7.0,87,-99.99,,,0.00,0.000000,,2013-05-04 08:11:00,
2013-05-04 01:41:00,47.0,44.0,-100.00,NNW,338,2.0,5.0,90,-99.99,,,0.00,0.000000,,2013-05-04 08:41:00,
2013-05-04 01:52:00,47.0,44.0,-100.00,NNW,338,2.0,5.0,90,-99.99,,,0.00,0.000000,,2013-05-04 08:52:00,
2013-05-04 02:02:00,47.0,44.0,-100.00,NNW,338,2.0,5.0,90,-99.99,,,0.00,0.000000,,2013-05-04 09:02:00,
2013-05-04 02:11:00,47.0,44.0,-100.00,NNW,338,2.0,5.0,90,-99.99,,,0.00,0.000000,,2013-05-04 09:11:00,
2013-05-04 02:42:00,47.0,45.0,-100.00,North,355,3.0,6.0,92,-99.99,,,0.00,0.000000,,2013-05-04 09:42:00,
2013-05-04 02:53:00,47.0,45.0,-100.00,North,355,3.0,6.0,92,-99.99,,,0.00,0.000000,,2013-05-04 09:53:00,
2013-05-04 03:02:00,47.0,45.0,-100.00,North,355,3.0,6.0,92,-99.99,,,0.00,0.000000,,2013-05-04 10:02:00,
2013-05-04 03:12:00,47.0,45.0,-100.00,North,355,3.0,6.0,92,-99.99,,,0.00,0.000000,,2013-05-04 10:12:00,
2013-05-04 03:42:00,46.0,44.0,-100.00,NNW,343,3.0,4.0,92,-99.99,,,0.00,0.000000,,2013-05-04 10:42:00,
2013-05-04 03:53:00,46.0,44.0,-100.00,NNW,343,3.0,4.0,92,-99.99,,,0.00,0.000000,,2013-05-04 10:53:00,
2013-05-04 04:02:00,46.0,44.0,-100.00,NNW,343,3.0,4.0,92,-99.99,,,0.00,0.000000,,2013-05-04 11:02:00,
2013-05-04 04:11:00,46.0,44.0,-100.00,NNW,343,3.0,4.0,92,-99.99,,,0.00,0.000000,,2013-05-04 11:11:00,
2013-05-04 04:42:00,45.0,43.0,-100.00,NW,326,1.0,3.0,93,-99.99,,,0.00,0.000000,,2013-05-04 11:42:00,
2013-05-04 05:04:00,45.0,43.0,-100.00,NW,326,1.0,3.0,93,-99.99,,,0.00,0.000000,,2013-05-04 12:04:00,
2013-05-04 05:12:00,45.0,43.0,-100.00,NW,326,1.0,3.0,93,-99.99,,,0.00,0.000000,,2013-05-04 12:12:00,
2013-05-04 06:41:00,50.0,44.0,-100.00,NE,48,4.0,7.0,79,-99.99,,,0.00,5.230000,,2013-05-04 13:41:00,
2013-05-04 06:52:00,50.0,44.0,-100.00,NE,48,4.0,7.0,79,-99.99,,,0.00,5.230000,,2013-05-04 13:52:00,
2013-05-04 07:02:00,50.0,44.0,-100.00,NE,48,4.0,7.0,79,-99.99,,,0.00,5.230000,,2013-05-04 14:02:00,
2013-05-04 07:11:00,50.0,44.0,-100.00,NE,48,4.0,7.0,79,-99.99,,,0.00,5.230000,,2013-05-04 14:11:00,
2013-05-04 07:41:00,53.0,44.0,-100.00,NNE,14,3.0,5.0,72,-99.99,,,-99.99,141.440002,,2013-05-04 14:41:00,
2013-05-04 07:52:00,53.0,44.0,-100.00,NNE,14,3.0,5.0,72,-99.99,,,-99.99,141.440002,,2013-05-04 14:52:00,
2013-05-04 08:01:00,53.0,44.0,-100.00,NNE,14,3.0,5.0,72,-99.99,,,-99.99,141.440002,,2013-05-04 15:01:00,
2013-05-04 08:11:00,53.0,44.0,-100.00,NNE,14,3.0,5.0,72,-99.99,,,-99.99,141.440002,,2013-05-04 15:11:00,
2013-05-04 08:43:00,57.0,46.0,-100.00,NNE,18,3.0,7.0,65,-99.99,,,0.00,331.920013,,2013-05-04 15:43:00,
2013-05-04 09:12:00,57.0,46.0,-100.00,NNE,18,3.0,7.0,65,-99.99,,,0.00,331.920013,,2013-05-04 16:12:00,
2013-05-04 09:42:00,65.0,47.0,-100.00,NNE,24,4.0,9.0,52,-99.99,,,0.00,485.920013,,2013-05-04 16:42:00,
2013-05-04 09:52:00,65.0,47.0,-100.00,NNE,24,4.0,9.0,52,-99.99,,,0.00,485.920013,,2013-05-04 16:52:00,
2013-05-04 10:12:00,65.0,47.0,-100.00,NNE,24,4.0,9.0,52,-99.99,,,0.00,485.920013,,2013-05-04 17:12:00,
2013-05-04 10:42:00,72.0,46.0,-100.00,ENE,60,6.0,12.0,39,-99.99,,,0.00,706.500000,,2013-05-04 17:42:00,
2013-05-04 10:52:00,72.0,46.0,-100.00,ENE,60,6.0,12.0,39,-99.99,,,0.00,706.500000,,2013-05-04 17:52:00,
2013-05-04 11:01:00,72.0,46.0,-100.00,ENE,60,6.0,12.0,39,-99.99,,,0.00,706.500000,,2013-05-04 18:01:00,
2013-05-04 11:12:00,72.0,46.0,-100.00,ENE,60,6.0,12.0,39,-99.99,,,0.00,706.500000,,2013-05-04 18:12:00,
2013-05-04 11:42:00,76.0,45.0,-100.00,NNE,16,5.0,12.0,34,-99.99,,,0.00,843.760010,,2013-05-04 18:42:00,
2013-05-04 11:52:00,76.0,45.0,-100.00,NNE,16,5.0,12.0,34,-99.99,,,0.00,843.760010,,2013-05-04 18:52:00,
2013-05-04 12:01:00,76.0,45.0,-100.00,NNE,16,5.0,12.0,34,-99.99,,,0.00,843.760010,,2013-05-04 19:01:00,
2013-05-04 12:11:00,76.0,45.0,-100.00,NNE,16,5.0,12.0,34,-99.99,,,0.00,843.760010,,2013-05-04 19:11:00,
2013-05-04 12:42:00,72.0,46.0,-100.00,NNW,339,10.0,18.0,40,-99.99,,,0.00,922.789978,,2013-05-04 19:42:00,
2013-05-04 12:52:00,72.0,46.0,-100.00,NNW,339,10.0,18.0,40,-99.99,,,0.00,922.789978,,2013-05-04 19:52:00,
2013-05-04 13:02:00,72.0,46.0,-100.00,NNW,339,10.0,18.0,40,-99.99,,,0.00,922.789978,,2013-05-04 20:02:00,
2013-05-04 13:11:00,72.0,46.0,-100.00,NNW,339,10.0,18.0,40,-99.99,,,0.00,922.789978,,2013-05-04 20:11:00,
2013-05-04 13:42:00,71.0,45.0,-100.00,NNW,343,11.0,22.0,39,-99.99,,,0.00,950.679993,,2013-05-04 20:42:00,
2013-05-04 13:52:00,71.0,45.0,-100.00,NNW,343,11.0,22.0,39,-99.99,,,0.00,950.679993,,2013-05-04 20:52:00,
2013-05-04 14:01:00,71.0,45.0,-100.00,NNW,343,11.0,22.0,39,-99.99,,,0.00,950.679993,,2013-05-04 21:01:00,
2013-05-04 14:43:00,69.0,45.0,-100.00,North,350,10.0,22.0,41,-99.99,,,0.00,927.440002,,2013-05-04 21:43:00,
2013-05-04 14:53:00,69.0,45.0,-100.00,North,350,10.0,22.0,41,-99.99,,,0.00,927.440002,,2013-05-04 21:53:00,
2013-05-04 15:02:00,69.0,45.0,-100.00,North,350,10.0,22.0,41,-99.99,,,0.00,927.440002,,2013-05-04 22:02:00,
2013-05-04 15:12:00,69.0,45.0,-100.00,North,350,10.0,22.0,41,-99.99,,,0.00,927.440002,,2013-05-04 22:12:00,
2013-05-04 15:42:00,69.0,45.0,-100.00,NNW,344,10.0,22.0,42,-99.99,,,-99.99,853.049988,,2013-05-04 22:42:00,
2013-05-04 15:52:00,69.0,45.0,-100.00,NNW,344,10.0,22.0,42,-99.99,,,-99.99,853.049988,,2013-05-04 22:52:00,
2013-05-04 16:02:00,69.0,45.0,-100.00,NNW,344,10.0,22.0,42,-99.99,,,-99.99,853.049988,,2013-05-04 23:02:00,
2013-05-04 16:11:00,69.0,45.0,-100.00,NNW,344,10.0,22.0,42,-99.99,,,-99.99,853.049988,,2013-05-04 23:11:00,
2013-05-04 16:42:00,69.0,44.0,-100.00,North,351,10.0,20.0,40,-99.99,,,-99.99,727.539978,,2013-05-04 23:42:00,
2013-05-04 16:52:00,69.0,44.0,-100.00,North,351,10.0,20.0,40,-99.99,,,-99.99,727.539978,,2013-05-04 23:52:00,
2013-05-04 17:01:00,69.0,44.0,-100.00,North,351,10.0,20.0,40,-99.99,,,-99.99,727.539978,,2013-05-05 00:01:00,
2013-05-04 17:11:00,69.0,44.0,-100.00,North,351,10.0,20.0,40,-99.99,,,-99.99,727.539978,,2013-05-05 00:11:00,
2013-05-04 18:42:00,64.0,44.0,-100.00,NNW,345,9.0,18.0,48,-99.99,,,0.00,369.230011,,2013-05-05 01:42:00,
2013-05-04 18:52:00,64.0,44.0,-100.00,NNW,345,9.0,18.0,48,-99.99,,,0.00,369.230011,,2013-05-05 01:52:00,
2013-05-04 19:02:00,64.0,44.0,-100.00,NNW,345,9.0,18.0,48,-99.99,,,0.00,369.230011,,2013-05-05 02:02:00,
2013-05-04 19:11:00,64.0,44.0,-100.00,NNW,345,9.0,18.0,48,-99.99,,,0.00,369.230011,,2013-05-05 02:11:00,
2013-05-04 19:42:00,63.0,44.0,-100.00,North,357,6.0,13.0,49,-99.99,,,0.00,175.029999,,2013-05-05 02:42:00,
2013-05-04 19:52:00,63.0,44.0,-100.00,North,357,6.0,13.0,49,-99.99,,,0.00,175.029999,,2013-05-05 02:52:00,
2013-05-04 20:01:00,63.0,44.0,-100.00,North,357,6.0,13.0,49,-99.99,,,0.00,175.029999,,2013-05-05 03:01:00,
2013-05-04 20:11:00,63.0,44.0,-100.00,North,357,6.0,13.0,49,-99.99,,,0.00,175.029999,,2013-05-05 03:11:00,
2013-05-04 20:42:00,60.0,43.0,-100.00,North,356,3.0,7.0,54,-99.99,,,0.00,13.370000,,2013-05-05 03:42:00,
2013-05-04 20:53:00,60.0,43.0,-100.00,North,356,3.0,7.0,54,-99.99,,,0.00,13.370000,,2013-05-05 03:53:00,
2013-05-04 21:02:00,60.0,43.0,-100.00,North,356,3.0,7.0,54,-99.99,,,0.00,13.370000,,2013-05-05 04:02:00,
2013-05-04 21:12:00,60.0,43.0,-100.00,North,356,3.0,7.0,54,-99.99,,,0.00,13.370000,,2013-05-05 04:12:00,
2013-05-04 21:43:00,57.0,43.0,-100.00,North,356,2.0,2.0,58,-99.99,,,0.00,0.230000,,2013-05-05 04:43:00,
2013-05-04 21:52:00,57.0,43.0,-100.00,North,356,2.0,2.0,58,-99.99,,,0.00,0.230000,,2013-05-05 04:52:00,
2013-05-04 22:02:00,57.0,43.0,-100.00,North,356,2.0,2.0,58,-99.99,,,0.00,0.230000,,2013-05-05 05:02:00,
2013-05-04 22:12:00,57.0,43.0,-100.00,North,356,2.0,2.0,58,-99.99,,,0.00,0.230000,,2013-05-05 05:12:00,
2013-05-04 22:42:00,69.0,35.0,-100.00,NNE,20,3.0,5.0,29,-99.99,,,0.00,0.120000,,2013-05-05 05:42:00,
2013-05-04 22:52:00,69.0,35.0,-100.00,NNE,20,3.0,5.0,29,-99.99,,,0.00,0.120000,,2013-05-05 05:52:00,
2013-05-04 23:01:00,69.0,35.0,-100.00,NNE,20,3.0,5.0,29,-99.99,,,0.00,0.120000,,2013-05-05 06:01:00,
2013-05-04 23:11:00,69.0,35.0,-100.00,NNE,20,3.0,5.0,29,-99.99,,,0.00,0.120000,,2013-05-05 06:11:00,
2013-05-04 23:42:00,73.0,31.0,-100.00,NE,42,5.0,9.0,21,-99.99,,,0.00,0.120000,,2013-05-05 06:42:00,
2013-05-04 23:52:00,73.0,31.0,-100.00,NE,42,5.0,9.0,21,-99.99,,,0.00,0.120000,,2013-05-05 06:52:00,